sensor_id;sensor_type;location;lat;lon;timestamp;P1;durP1;ratioP1;P2;durP2;ratioP2
8881;SDS011;4477;48.736;9.176;2022-12-05T00:01:18;35.60;;;22.20;;
8881;SDS011;4477;48.736;9.176;2022-12-05T00:03:45;33.10;;;20.93;;
8881;SDS011;4477;48.736;9.176;2022-12-05T00:06:13;36.10;;;22.93;;
8881;SDS011;4477;48.736;9.176;2022-12-05T00:08:41;34.23;;;21.60;;
8881;SDS011;4477;48.736;9.176;2022-12-05T00:11:11;33.03;;;21.13;;
8881;SDS011;4477;48.736;9.176;2022-12-05T00:13:38;34.33;;;21.53;;
8881;SDS011;4477;48.736;9.176;2022-12-05T00:16:09;36.00;;;22.07;;
8881;SDS011;4477;48.736;9.176;2022-12-05T00:18:36;35.13;;;21.30;;
8881;SDS011;4477;48.736;9.176;2022-12-05T00:21:04;32.80;;;21.47;;
8881;SDS011;4477;48.736;9.176;2022-12-05T00:23:31;36.20;;;21.83;;
8881;SDS011;4477;48.736;9.176;2022-12-05T00:26:00;35.80;;;21.50;;
8881;SDS011;4477;48.736;9.176;2022-12-05T00:28:27;33.03;;;21.10;;
8881;SDS011;4477;48.736;9.176;2022-12-05T00:30:55;29.77;;;19.80;;
8881;SDS011;4477;48.736;9.176;2022-12-05T00:33:23;32.07;;;21.10;;
8881;SDS011;4477;48.736;9.176;2022-12-05T00:35:50;34.10;;;20.33;;
8881;SDS011;4477;48.736;9.176;2022-12-05T00:38:17;33.87;;;20.87;;
8881;SDS011;4477;48.736;9.176;2022-12-05T00:40:44;32.83;;;20.20;;
8881;SDS011;4477;48.736;9.176;2022-12-05T00:43:11;31.60;;;20.43;;
8881;SDS011;4477;48.736;9.176;2022-12-05T00:45:38;34.80;;;20.47;;
8881;SDS011;4477;48.736;9.176;2022-12-05T00:48:06;28.47;;;18.73;;
8881;SDS011;4477;48.736;9.176;2022-12-05T00:50:34;31.17;;;20.30;;
8881;SDS011;4477;48.736;9.176;2022-12-05T00:53:01;31.40;;;19.00;;
8881;SDS011;4477;48.736;9.176;2022-12-05T00:55:28;28.40;;;18.77;;
8881;SDS011;4477;48.736;9.176;2022-12-05T00:57:55;29.97;;;18.97;;
8881;SDS011;4477;48.736;9.176;2022-12-05T01:00:22;30.07;;;19.23;;
8881;SDS011;4477;48.736;9.176;2022-12-05T01:02:50;33.67;;;20.30;;
8881;SDS011;4477;48.736;9.176;2022-12-05T01:05:17;29.20;;;18.90;;
8881;SDS011;4477;48.736;9.176;2022-12-05T01:07:45;31.83;;;19.97;;
8881;SDS011;4477;48.736;9.176;2022-12-05T01:10:12;33.63;;;19.83;;
8881;SDS011;4477;48.736;9.176;2022-12-05T01:12:40;33.53;;;19.83;;
8881;SDS011;4477;48.736;9.176;2022-12-05T01:15:07;30.93;;;19.17;;
8881;SDS011;4477;48.736;9.176;2022-12-05T01:17:35;30.23;;;18.70;;
8881;SDS011;4477;48.736;9.176;2022-12-05T01:20:02;31.30;;;19.73;;
8881;SDS011;4477;48.736;9.176;2022-12-05T01:22:29;31.00;;;19.40;;
8881;SDS011;4477;48.736;9.176;2022-12-05T01:24:58;32.50;;;19.50;;
8881;SDS011;4477;48.736;9.176;2022-12-05T01:27:25;31.83;;;19.67;;
8881;SDS011;4477;48.736;9.176;2022-12-05T01:29:52;32.50;;;19.57;;
8881;SDS011;4477;48.736;9.176;2022-12-05T01:32:19;30.47;;;19.83;;
8881;SDS011;4477;48.736;9.176;2022-12-05T01:34:46;30.90;;;19.83;;
8881;SDS011;4477;48.736;9.176;2022-12-05T01:37:14;29.83;;;18.93;;
8881;SDS011;4477;48.736;9.176;2022-12-05T01:39:41;30.53;;;18.43;;
8881;SDS011;4477;48.736;9.176;2022-12-05T01:42:11;33.00;;;20.00;;
8881;SDS011;4477;48.736;9.176;2022-12-05T01:45:01;29.47;;;18.77;;
8881;SDS011;4477;48.736;9.176;2022-12-05T01:47:29;29.37;;;18.57;;
8881;SDS011;4477;48.736;9.176;2022-12-05T01:49:57;30.73;;;18.57;;
8881;SDS011;4477;48.736;9.176;2022-12-05T01:52:26;30.00;;;18.00;;
8881;SDS011;4477;48.736;9.176;2022-12-05T01:54:55;31.93;;;18.23;;
8881;SDS011;4477;48.736;9.176;2022-12-05T01:57:24;30.33;;;17.70;;
8881;SDS011;4477;48.736;9.176;2022-12-05T01:59:54;33.80;;;18.53;;
8881;SDS011;4477;48.736;9.176;2022-12-05T02:02:22;27.40;;;17.43;;
8881;SDS011;4477;48.736;9.176;2022-12-05T02:04:50;30.07;;;18.60;;
8881;SDS011;4477;48.736;9.176;2022-12-05T02:07:23;31.17;;;18.57;;
8881;SDS011;4477;48.736;9.176;2022-12-05T02:09:50;28.27;;;17.03;;
8881;SDS011;4477;48.736;9.176;2022-12-05T02:12:17;29.70;;;17.63;;
8881;SDS011;4477;48.736;9.176;2022-12-05T02:14:48;33.07;;;19.73;;
8881;SDS011;4477;48.736;9.176;2022-12-05T02:17:20;31.73;;;18.37;;
8881;SDS011;4477;48.736;9.176;2022-12-05T02:19:52;34.00;;;19.37;;
8881;SDS011;4477;48.736;9.176;2022-12-05T02:22:27;33.10;;;19.30;;
8881;SDS011;4477;48.736;9.176;2022-12-05T02:25:07;36.43;;;19.43;;
8881;SDS011;4477;48.736;9.176;2022-12-05T02:27:40;34.90;;;20.37;;
8881;SDS011;4477;48.736;9.176;2022-12-05T02:30:15;35.17;;;19.10;;
8881;SDS011;4477;48.736;9.176;2022-12-05T02:32:48;38.57;;;19.60;;
8881;SDS011;4477;48.736;9.176;2022-12-05T02:35:20;34.90;;;19.87;;
8881;SDS011;4477;48.736;9.176;2022-12-05T02:37:51;42.43;;;21.93;;
8881;SDS011;4477;48.736;9.176;2022-12-05T02:40:20;45.03;;;22.70;;
8881;SDS011;4477;48.736;9.176;2022-12-05T02:42:52;42.93;;;22.27;;
8881;SDS011;4477;48.736;9.176;2022-12-05T02:45:23;42.10;;;21.70;;
8881;SDS011;4477;48.736;9.176;2022-12-05T02:47:52;40.83;;;21.17;;
8881;SDS011;4477;48.736;9.176;2022-12-05T02:50:20;42.97;;;22.87;;
8881;SDS011;4477;48.736;9.176;2022-12-05T02:52:49;44.43;;;22.93;;
8881;SDS011;4477;48.736;9.176;2022-12-05T02:55:17;44.67;;;22.50;;
8881;SDS011;4477;48.736;9.176;2022-12-05T02:57:47;41.00;;;22.70;;
8881;SDS011;4477;48.736;9.176;2022-12-05T03:00:16;41.07;;;22.33;;
8881;SDS011;4477;48.736;9.176;2022-12-05T03:02:46;44.83;;;22.40;;
8881;SDS011;4477;48.736;9.176;2022-12-05T03:05:15;39.53;;;21.07;;
8881;SDS011;4477;48.736;9.176;2022-12-05T03:07:45;43.40;;;22.10;;
8881;SDS011;4477;48.736;9.176;2022-12-05T03:10:14;44.77;;;23.13;;
8881;SDS011;4477;48.736;9.176;2022-12-05T03:12:43;42.17;;;22.30;;
8881;SDS011;4477;48.736;9.176;2022-12-05T03:15:13;39.93;;;21.83;;
8881;SDS011;4477;48.736;9.176;2022-12-05T03:17:43;39.77;;;21.50;;
8881;SDS011;4477;48.736;9.176;2022-12-05T03:20:17;40.87;;;21.27;;
8881;SDS011;4477;48.736;9.176;2022-12-05T03:22:47;38.67;;;21.87;;
8881;SDS011;4477;48.736;9.176;2022-12-05T03:25:16;41.03;;;21.80;;
8881;SDS011;4477;48.736;9.176;2022-12-05T03:27:45;42.83;;;21.67;;
8881;SDS011;4477;48.736;9.176;2022-12-05T03:30:14;37.60;;;20.23;;
8881;SDS011;4477;48.736;9.176;2022-12-05T03:32:44;37.97;;;20.47;;
8881;SDS011;4477;48.736;9.176;2022-12-05T03:35:13;39.93;;;21.57;;
8881;SDS011;4477;48.736;9.176;2022-12-05T03:37:46;40.30;;;21.23;;
8881;SDS011;4477;48.736;9.176;2022-12-05T03:40:19;42.17;;;21.60;;
8881;SDS011;4477;48.736;9.176;2022-12-05T03:42:49;39.10;;;21.00;;
8881;SDS011;4477;48.736;9.176;2022-12-05T03:45:21;36.93;;;21.03;;
8881;SDS011;4477;48.736;9.176;2022-12-05T03:47:51;39.90;;;20.93;;
8881;SDS011;4477;48.736;9.176;2022-12-05T03:50:22;38.13;;;20.67;;
8881;SDS011;4477;48.736;9.176;2022-12-05T03:52:53;34.83;;;20.63;;
8881;SDS011;4477;48.736;9.176;2022-12-05T03:55:22;37.60;;;20.67;;
8881;SDS011;4477;48.736;9.176;2022-12-05T03:57:51;37.20;;;20.63;;
8881;SDS011;4477;48.736;9.176;2022-12-05T04:00:20;34.77;;;20.47;;
8881;SDS011;4477;48.736;9.176;2022-12-05T04:02:48;35.27;;;21.40;;
8881;SDS011;4477;48.736;9.176;2022-12-05T04:05:17;36.60;;;20.30;;
8881;SDS011;4477;48.736;9.176;2022-12-05T04:07:45;40.50;;;20.90;;
8881;SDS011;4477;48.736;9.176;2022-12-05T04:10:17;32.33;;;19.40;;
8881;SDS011;4477;48.736;9.176;2022-12-05T04:12:46;38.20;;;20.57;;
8881;SDS011;4477;48.736;9.176;2022-12-05T04:15:16;35.90;;;19.80;;
8881;SDS011;4477;48.736;9.176;2022-12-05T04:17:47;40.50;;;21.13;;
8881;SDS011;4477;48.736;9.176;2022-12-05T04:20:15;39.00;;;21.90;;
8881;SDS011;4477;48.736;9.176;2022-12-05T04:23:01;37.27;;;20.70;;
8881;SDS011;4477;48.736;9.176;2022-12-05T04:25:32;38.13;;;21.17;;
8881;SDS011;4477;48.736;9.176;2022-12-05T04:28:10;47.17;;;23.17;;
8881;SDS011;4477;48.736;9.176;2022-12-05T04:30:42;50.57;;;22.97;;
8881;SDS011;4477;48.736;9.176;2022-12-05T04:33:13;48.00;;;24.40;;
8881;SDS011;4477;48.736;9.176;2022-12-05T04:35:42;44.97;;;24.00;;
8881;SDS011;4477;48.736;9.176;2022-12-05T04:38:13;41.17;;;22.60;;
8881;SDS011;4477;48.736;9.176;2022-12-05T04:40:43;44.87;;;23.37;;
8881;SDS011;4477;48.736;9.176;2022-12-05T04:43:12;48.33;;;23.43;;
8881;SDS011;4477;48.736;9.176;2022-12-05T04:45:41;47.80;;;24.27;;
8881;SDS011;4477;48.736;9.176;2022-12-05T04:48:11;47.57;;;23.63;;
8881;SDS011;4477;48.736;9.176;2022-12-05T04:50:39;50.97;;;23.60;;
8881;SDS011;4477;48.736;9.176;2022-12-05T04:53:07;48.47;;;23.90;;
8881;SDS011;4477;48.736;9.176;2022-12-05T04:55:35;53.13;;;24.60;;
8881;SDS011;4477;48.736;9.176;2022-12-05T04:58:07;45.00;;;23.97;;
8881;SDS011;4477;48.736;9.176;2022-12-05T05:00:37;49.00;;;24.40;;
8881;SDS011;4477;48.736;9.176;2022-12-05T05:03:07;61.77;;;24.73;;
8881;SDS011;4477;48.736;9.176;2022-12-05T05:05:37;51.50;;;24.47;;
8881;SDS011;4477;48.736;9.176;2022-12-05T05:08:11;61.53;;;25.83;;
8881;SDS011;4477;48.736;9.176;2022-12-05T05:10:43;56.30;;;24.00;;
8881;SDS011;4477;48.736;9.176;2022-12-05T05:13:15;82.30;;;40.63;;
8881;SDS011;4477;48.736;9.176;2022-12-05T05:15:42;70.10;;;33.57;;
8881;SDS011;4477;48.736;9.176;2022-12-05T05:18:09;63.73;;;29.80;;
8881;SDS011;4477;48.736;9.176;2022-12-05T05:20:37;62.77;;;29.20;;
8881;SDS011;4477;48.736;9.176;2022-12-05T05:23:05;55.93;;;26.10;;
8881;SDS011;4477;48.736;9.176;2022-12-05T05:25:32;57.60;;;26.07;;
8881;SDS011;4477;48.736;9.176;2022-12-05T05:27:59;52.93;;;27.17;;
8881;SDS011;4477;48.736;9.176;2022-12-05T05:30:28;56.73;;;29.30;;
8881;SDS011;4477;48.736;9.176;2022-12-05T05:32:55;57.83;;;29.07;;
8881;SDS011;4477;48.736;9.176;2022-12-05T05:35:22;52.17;;;27.40;;
8881;SDS011;4477;48.736;9.176;2022-12-05T05:37:49;56.17;;;28.47;;
8881;SDS011;4477;48.736;9.176;2022-12-05T05:40:16;51.47;;;26.93;;
8881;SDS011;4477;48.736;9.176;2022-12-05T05:42:44;55.37;;;25.87;;
8881;SDS011;4477;48.736;9.176;2022-12-05T05:45:12;52.50;;;27.23;;
8881;SDS011;4477;48.736;9.176;2022-12-05T05:47:40;45.37;;;24.57;;
8881;SDS011;4477;48.736;9.176;2022-12-05T05:50:08;48.73;;;25.27;;
8881;SDS011;4477;48.736;9.176;2022-12-05T05:52:35;45.53;;;25.37;;
8881;SDS011;4477;48.736;9.176;2022-12-05T05:55:03;41.17;;;23.27;;
8881;SDS011;4477;48.736;9.176;2022-12-05T05:57:31;43.27;;;24.10;;
8881;SDS011;4477;48.736;9.176;2022-12-05T05:59:58;38.80;;;22.47;;
8881;SDS011;4477;48.736;9.176;2022-12-05T06:02:30;44.87;;;22.87;;
8881;SDS011;4477;48.736;9.176;2022-12-05T06:04:58;48.13;;;23.03;;
8881;SDS011;4477;48.736;9.176;2022-12-05T06:07:26;49.37;;;23.90;;
8881;SDS011;4477;48.736;9.176;2022-12-05T06:09:53;47.93;;;23.70;;
8881;SDS011;4477;48.736;9.176;2022-12-05T06:12:21;52.80;;;27.50;;
8881;SDS011;4477;48.736;9.176;2022-12-05T06:14:48;47.93;;;28.03;;
8881;SDS011;4477;48.736;9.176;2022-12-05T06:17:15;48.97;;;23.93;;
8881;SDS011;4477;48.736;9.176;2022-12-05T06:19:43;55.73;;;24.97;;
8881;SDS011;4477;48.736;9.176;2022-12-05T06:22:11;50.30;;;24.13;;
8881;SDS011;4477;48.736;9.176;2022-12-05T06:24:39;51.53;;;26.60;;
8881;SDS011;4477;48.736;9.176;2022-12-05T06:27:06;45.17;;;24.73;;
8881;SDS011;4477;48.736;9.176;2022-12-05T06:29:33;55.20;;;27.53;;
8881;SDS011;4477;48.736;9.176;2022-12-05T06:32:00;54.90;;;27.50;;
8881;SDS011;4477;48.736;9.176;2022-12-05T06:34:27;51.07;;;26.40;;
8881;SDS011;4477;48.736;9.176;2022-12-05T06:36:56;57.77;;;26.73;;
8881;SDS011;4477;48.736;9.176;2022-12-05T06:39:25;54.90;;;27.33;;
8881;SDS011;4477;48.736;9.176;2022-12-05T06:41:52;56.63;;;27.33;;
8881;SDS011;4477;48.736;9.176;2022-12-05T06:44:19;51.57;;;26.00;;
8881;SDS011;4477;48.736;9.176;2022-12-05T06:46:48;47.03;;;26.97;;
8881;SDS011;4477;48.736;9.176;2022-12-05T06:49:15;50.63;;;26.27;;
8881;SDS011;4477;48.736;9.176;2022-12-05T06:51:43;53.97;;;26.93;;
8881;SDS011;4477;48.736;9.176;2022-12-05T06:54:10;44.27;;;25.93;;
8881;SDS011;4477;48.736;9.176;2022-12-05T06:56:39;48.67;;;27.50;;
8881;SDS011;4477;48.736;9.176;2022-12-05T06:59:06;46.10;;;26.50;;
8881;SDS011;4477;48.736;9.176;2022-12-05T07:01:33;52.30;;;25.67;;
8881;SDS011;4477;48.736;9.176;2022-12-05T07:04:07;49.90;;;24.73;;
8881;SDS011;4477;48.736;9.176;2022-12-05T07:06:34;43.73;;;24.10;;
8881;SDS011;4477;48.736;9.176;2022-12-05T07:09:02;47.77;;;24.60;;
8881;SDS011;4477;48.736;9.176;2022-12-05T07:11:29;44.73;;;24.40;;
8881;SDS011;4477;48.736;9.176;2022-12-05T07:13:58;44.70;;;24.93;;
8881;SDS011;4477;48.736;9.176;2022-12-05T07:16:25;38.90;;;22.90;;
8881;SDS011;4477;48.736;9.176;2022-12-05T07:18:53;40.40;;;22.87;;
8881;SDS011;4477;48.736;9.176;2022-12-05T07:21:20;40.37;;;25.37;;
8881;SDS011;4477;48.736;9.176;2022-12-05T07:23:47;45.97;;;25.67;;
8881;SDS011;4477;48.736;9.176;2022-12-05T07:26:15;45.30;;;25.43;;
8881;SDS011;4477;48.736;9.176;2022-12-05T07:28:43;43.70;;;23.90;;
8881;SDS011;4477;48.736;9.176;2022-12-05T07:31:12;41.30;;;24.83;;
8881;SDS011;4477;48.736;9.176;2022-12-05T07:33:40;42.80;;;25.23;;
8881;SDS011;4477;48.736;9.176;2022-12-05T07:36:08;35.97;;;23.03;;
8881;SDS011;4477;48.736;9.176;2022-12-05T07:38:36;29.93;;;20.97;;
8881;SDS011;4477;48.736;9.176;2022-12-05T07:41:04;33.50;;;20.33;;
8881;SDS011;4477;48.736;9.176;2022-12-05T07:43:31;34.03;;;19.83;;
8881;SDS011;4477;48.736;9.176;2022-12-05T07:46:00;36.93;;;20.43;;
8881;SDS011;4477;48.736;9.176;2022-12-05T07:48:29;31.83;;;20.83;;
8881;SDS011;4477;48.736;9.176;2022-12-05T07:50:59;32.50;;;20.83;;
8881;SDS011;4477;48.736;9.176;2022-12-05T07:53:27;30.20;;;20.00;;
8881;SDS011;4477;48.736;9.176;2022-12-05T07:55:54;29.47;;;17.60;;
8881;SDS011;4477;48.736;9.176;2022-12-05T07:58:21;25.83;;;17.40;;
8881;SDS011;4477;48.736;9.176;2022-12-05T08:00:49;24.30;;;17.33;;
8881;SDS011;4477;48.736;9.176;2022-12-05T08:03:16;26.27;;;18.13;;
8881;SDS011;4477;48.736;9.176;2022-12-05T08:05:44;25.50;;;17.33;;
8881;SDS011;4477;48.736;9.176;2022-12-05T08:08:12;24.10;;;17.33;;
8881;SDS011;4477;48.736;9.176;2022-12-05T08:10:39;23.83;;;16.60;;
8881;SDS011;4477;48.736;9.176;2022-12-05T08:13:06;26.13;;;17.73;;
8881;SDS011;4477;48.736;9.176;2022-12-05T08:15:33;23.10;;;15.83;;
8881;SDS011;4477;48.736;9.176;2022-12-05T08:18:01;22.23;;;15.20;;
8881;SDS011;4477;48.736;9.176;2022-12-05T08:20:28;22.23;;;15.87;;
8881;SDS011;4477;48.736;9.176;2022-12-05T08:22:57;23.20;;;16.90;;
8881;SDS011;4477;48.736;9.176;2022-12-05T08:25:24;23.13;;;16.47;;
8881;SDS011;4477;48.736;9.176;2022-12-05T08:27:51;38.30;;;27.07;;
8881;SDS011;4477;48.736;9.176;2022-12-05T08:30:18;33.47;;;24.37;;
8881;SDS011;4477;48.736;9.176;2022-12-05T08:32:45;38.43;;;27.20;;
8881;SDS011;4477;48.736;9.176;2022-12-05T08:35:12;22.47;;;16.90;;
8881;SDS011;4477;48.736;9.176;2022-12-05T08:37:40;21.93;;;16.47;;
8881;SDS011;4477;48.736;9.176;2022-12-05T08:40:09;21.47;;;15.70;;
8881;SDS011;4477;48.736;9.176;2022-12-05T08:42:36;23.00;;;17.13;;
8881;SDS011;4477;48.736;9.176;2022-12-05T08:45:04;24.13;;;16.50;;
8881;SDS011;4477;48.736;9.176;2022-12-05T08:47:31;20.37;;;15.30;;
8881;SDS011;4477;48.736;9.176;2022-12-05T08:49:58;24.27;;;16.07;;
8881;SDS011;4477;48.736;9.176;2022-12-05T08:52:25;21.70;;;14.93;;
8881;SDS011;4477;48.736;9.176;2022-12-05T08:54:52;19.73;;;14.40;;
8881;SDS011;4477;48.736;9.176;2022-12-05T08:57:21;19.57;;;13.87;;
8881;SDS011;4477;48.736;9.176;2022-12-05T08:59:49;19.97;;;15.47;;
8881;SDS011;4477;48.736;9.176;2022-12-05T09:02:16;16.30;;;12.43;;
8881;SDS011;4477;48.736;9.176;2022-12-05T09:04:43;15.83;;;12.30;;
8881;SDS011;4477;48.736;9.176;2022-12-05T09:07:10;16.10;;;13.13;;
8881;SDS011;4477;48.736;9.176;2022-12-05T09:09:37;14.03;;;11.90;;
8881;SDS011;4477;48.736;9.176;2022-12-05T09:12:05;15.53;;;11.70;;
8881;SDS011;4477;48.736;9.176;2022-12-05T09:14:33;16.43;;;11.43;;
8881;SDS011;4477;48.736;9.176;2022-12-05T09:17:00;15.20;;;11.33;;
8881;SDS011;4477;48.736;9.176;2022-12-05T09:19:28;13.07;;;10.10;;
8881;SDS011;4477;48.736;9.176;2022-12-05T09:21:55;12.90;;;10.10;;
8881;SDS011;4477;48.736;9.176;2022-12-05T09:24:22;12.63;;;9.87;;
8881;SDS011;4477;48.736;9.176;2022-12-05T09:26:50;11.53;;;9.30;;
8881;SDS011;4477;48.736;9.176;2022-12-05T09:29:17;13.10;;;9.20;;
8881;SDS011;4477;48.736;9.176;2022-12-05T09:31:46;10.13;;;8.40;;
8881;SDS011;4477;48.736;9.176;2022-12-05T09:34:16;9.67;;;8.50;;
8881;SDS011;4477;48.736;9.176;2022-12-05T09:36:44;10.17;;;8.27;;
8881;SDS011;4477;48.736;9.176;2022-12-05T09:39:13;11.90;;;9.17;;
8881;SDS011;4477;48.736;9.176;2022-12-05T09:41:51;9.17;;;8.13;;
8881;SDS011;4477;48.736;9.176;2022-12-05T09:47:19;8.87;;;7.70;;
8881;SDS011;4477;48.736;9.176;2022-12-05T09:49:49;10.73;;;8.47;;
8881;SDS011;4477;48.736;9.176;2022-12-05T09:52:20;8.63;;;7.70;;
8881;SDS011;4477;48.736;9.176;2022-12-05T09:54:48;8.57;;;7.30;;
8881;SDS011;4477;48.736;9.176;2022-12-05T09:57:27;14.80;;;7.97;;
8881;SDS011;4477;48.736;9.176;2022-12-05T10:00:05;13.40;;;8.37;;
8881;SDS011;4477;48.736;9.176;2022-12-05T10:02:37;11.23;;;7.97;;
8881;SDS011;4477;48.736;9.176;2022-12-05T10:05:08;10.23;;;8.07;;
8881;SDS011;4477;48.736;9.176;2022-12-05T10:07:36;8.50;;;7.60;;
8881;SDS011;4477;48.736;9.176;2022-12-05T10:10:19;14.33;;;8.53;;
8881;SDS011;4477;48.736;9.176;2022-12-05T10:12:52;9.30;;;7.03;;
8881;SDS011;4477;48.736;9.176;2022-12-05T10:15:27;16.33;;;7.63;;
8881;SDS011;4477;48.736;9.176;2022-12-05T10:17:57;16.23;;;8.27;;
8881;SDS011;4477;48.736;9.176;2022-12-05T10:20:26;7.80;;;6.90;;
8881;SDS011;4477;48.736;9.176;2022-12-05T10:22:55;12.63;;;7.00;;
8881;SDS011;4477;48.736;9.176;2022-12-05T10:25:24;9.70;;;7.07;;
8881;SDS011;4477;48.736;9.176;2022-12-05T10:27:53;7.30;;;6.57;;
8881;SDS011;4477;48.736;9.176;2022-12-05T10:30:23;13.10;;;11.80;;
8881;SDS011;4477;48.736;9.176;2022-12-05T10:32:51;10.50;;;9.50;;
8881;SDS011;4477;48.736;9.176;2022-12-05T10:35:21;7.77;;;6.93;;
8881;SDS011;4477;48.736;9.176;2022-12-05T10:37:49;7.87;;;6.77;;
8881;SDS011;4477;48.736;9.176;2022-12-05T10:40:17;6.23;;;5.63;;
8881;SDS011;4477;48.736;9.176;2022-12-05T10:42:44;5.97;;;5.37;;
8881;SDS011;4477;48.736;9.176;2022-12-05T10:45:13;5.27;;;4.77;;
8881;SDS011;4477;48.736;9.176;2022-12-05T10:47:41;6.80;;;5.23;;
8881;SDS011;4477;48.736;9.176;2022-12-05T10:50:16;5.23;;;4.73;;
8881;SDS011;4477;48.736;9.176;2022-12-05T10:52:46;5.93;;;5.33;;
8881;SDS011;4477;48.736;9.176;2022-12-05T10:55:15;6.80;;;6.10;;
8881;SDS011;4477;48.736;9.176;2022-12-05T10:57:45;6.43;;;5.07;;
8881;SDS011;4477;48.736;9.176;2022-12-05T11:00:15;5.60;;;4.97;;
8881;SDS011;4477;48.736;9.176;2022-12-05T11:02:46;6.47;;;5.33;;
8881;SDS011;4477;48.736;9.176;2022-12-05T11:05:13;6.33;;;5.37;;
8881;SDS011;4477;48.736;9.176;2022-12-05T11:07:44;5.93;;;5.27;;
8881;SDS011;4477;48.736;9.176;2022-12-05T11:10:19;5.50;;;5.00;;
8881;SDS011;4477;48.736;9.176;2022-12-05T11:12:46;5.53;;;4.67;;
8881;SDS011;4477;48.736;9.176;2022-12-05T11:15:19;5.73;;;4.57;;
8881;SDS011;4477;48.736;9.176;2022-12-05T11:17:49;4.80;;;4.40;;
8881;SDS011;4477;48.736;9.176;2022-12-05T11:23:12;4.47;;;4.03;;
8881;SDS011;4477;48.736;9.176;2022-12-05T11:25:42;5.47;;;4.47;;
8881;SDS011;4477;48.736;9.176;2022-12-05T11:28:22;4.30;;;3.90;;
8881;SDS011;4477;48.736;9.176;2022-12-05T11:30:54;4.03;;;3.63;;
8881;SDS011;4477;48.736;9.176;2022-12-05T11:33:23;4.27;;;3.37;;
8881;SDS011;4477;48.736;9.176;2022-12-05T11:35:51;4.30;;;3.20;;
8881;SDS011;4477;48.736;9.176;2022-12-05T11:38:20;3.40;;;2.93;;
8881;SDS011;4477;48.736;9.176;2022-12-05T11:40:51;3.33;;;2.90;;
8881;SDS011;4477;48.736;9.176;2022-12-05T11:43:25;3.20;;;2.67;;
8881;SDS011;4477;48.736;9.176;2022-12-05T11:45:57;2.90;;;2.60;;
8881;SDS011;4477;48.736;9.176;2022-12-05T11:48:38;2.67;;;2.43;;
8881;SDS011;4477;48.736;9.176;2022-12-05T11:51:25;3.27;;;2.73;;
8881;SDS011;4477;48.736;9.176;2022-12-05T11:53:59;3.13;;;2.50;;
8881;SDS011;4477;48.736;9.176;2022-12-05T11:56:33;3.00;;;2.50;;
8881;SDS011;4477;48.736;9.176;2022-12-05T11:59:15;2.93;;;2.70;;
8881;SDS011;4477;48.736;9.176;2022-12-05T12:01:48;4.13;;;3.07;;
8881;SDS011;4477;48.736;9.176;2022-12-05T12:07:13;3.10;;;2.60;;
8881;SDS011;4477;48.736;9.176;2022-12-05T12:09:45;4.50;;;2.90;;
8881;SDS011;4477;48.736;9.176;2022-12-05T12:12:21;4.70;;;2.70;;
8881;SDS011;4477;48.736;9.176;2022-12-05T12:14:50;4.13;;;2.80;;
8881;SDS011;4477;48.736;9.176;2022-12-05T12:17:27;4.47;;;2.90;;
8881;SDS011;4477;48.736;9.176;2022-12-05T12:20:07;3.40;;;2.90;;
8881;SDS011;4477;48.736;9.176;2022-12-05T12:22:57;4.23;;;3.27;;
8881;SDS011;4477;48.736;9.176;2022-12-05T12:25:37;3.53;;;3.07;;
8881;SDS011;4477;48.736;9.176;2022-12-05T12:28:17;3.27;;;2.97;;
8881;SDS011;4477;48.736;9.176;2022-12-05T12:30:59;3.13;;;2.83;;
8881;SDS011;4477;48.736;9.176;2022-12-05T12:33:36;3.90;;;3.50;;
8881;SDS011;4477;48.736;9.176;2022-12-05T12:36:12;5.60;;;3.17;;
8881;SDS011;4477;48.736;9.176;2022-12-05T12:38:53;4.80;;;2.90;;
8881;SDS011;4477;48.736;9.176;2022-12-05T12:41:40;5.00;;;2.90;;
8881;SDS011;4477;48.736;9.176;2022-12-05T12:44:43;3.97;;;3.03;;
8881;SDS011;4477;48.736;9.176;2022-12-05T12:47:25;9.13;;;4.50;;
8881;SDS011;4477;48.736;9.176;2022-12-05T12:50:01;6.63;;;3.57;;
8881;SDS011;4477;48.736;9.176;2022-12-05T12:52:38;9.40;;;3.47;;
8881;SDS011;4477;48.736;9.176;2022-12-05T12:55:20;3.30;;;3.00;;
8881;SDS011;4477;48.736;9.176;2022-12-05T12:57:59;4.60;;;3.70;;
8881;SDS011;4477;48.736;9.176;2022-12-05T13:00:41;5.47;;;3.83;;
8881;SDS011;4477;48.736;9.176;2022-12-05T13:03:16;8.07;;;3.60;;
8881;SDS011;4477;48.736;9.176;2022-12-05T13:05:47;4.60;;;4.10;;
8881;SDS011;4477;48.736;9.176;2022-12-05T13:08:19;4.37;;;3.30;;
8881;SDS011;4477;48.736;9.176;2022-12-05T13:10:50;5.03;;;3.83;;
8881;SDS011;4477;48.736;9.176;2022-12-05T13:13:18;4.57;;;3.40;;
8881;SDS011;4477;48.736;9.176;2022-12-05T13:15:49;4.23;;;3.27;;
8881;SDS011;4477;48.736;9.176;2022-12-05T13:18:20;4.10;;;3.73;;
8881;SDS011;4477;48.736;9.176;2022-12-05T13:20:48;4.83;;;4.33;;
8881;SDS011;4477;48.736;9.176;2022-12-05T13:23:17;4.20;;;3.80;;
8881;SDS011;4477;48.736;9.176;2022-12-05T13:25:46;6.30;;;4.57;;
8881;SDS011;4477;48.736;9.176;2022-12-05T13:28:20;6.97;;;4.40;;
8881;SDS011;4477;48.736;9.176;2022-12-05T13:30:54;5.37;;;4.03;;
8881;SDS011;4477;48.736;9.176;2022-12-05T13:33:26;4.30;;;3.80;;
8881;SDS011;4477;48.736;9.176;2022-12-05T13:35:56;7.53;;;3.53;;
8881;SDS011;4477;48.736;9.176;2022-12-05T13:38:48;4.87;;;3.97;;
8881;SDS011;4477;48.736;9.176;2022-12-05T13:41:38;8.63;;;4.10;;
8881;SDS011;4477;48.736;9.176;2022-12-05T13:44:29;4.47;;;4.07;;
8881;SDS011;4477;48.736;9.176;2022-12-05T13:47:01;18.60;;;12.93;;
8881;SDS011;4477;48.736;9.176;2022-12-05T13:49:32;15.70;;;11.63;;
8881;SDS011;4477;48.736;9.176;2022-12-05T13:52:08;21.17;;;13.10;;
8881;SDS011;4477;48.736;9.176;2022-12-05T13:54:40;9.30;;;4.97;;
8881;SDS011;4477;48.736;9.176;2022-12-05T14:00:20;9.37;;;4.00;;
8881;SDS011;4477;48.736;9.176;2022-12-05T14:02:51;4.77;;;3.10;;
8881;SDS011;4477;48.736;9.176;2022-12-05T14:11:16;3.97;;;3.27;;
8881;SDS011;4477;48.736;9.176;2022-12-05T14:13:43;4.17;;;3.20;;
8881;SDS011;4477;48.736;9.176;2022-12-05T14:22:16;3.00;;;2.70;;
8881;SDS011;4477;48.736;9.176;2022-12-05T14:28:19;6.03;;;3.53;;
8881;SDS011;4477;48.736;9.176;2022-12-05T14:31:01;5.30;;;4.30;;
8881;SDS011;4477;48.736;9.176;2022-12-05T14:33:45;6.80;;;4.80;;
8881;SDS011;4477;48.736;9.176;2022-12-05T14:36:29;7.87;;;3.93;;
8881;SDS011;4477;48.736;9.176;2022-12-05T14:38:57;7.07;;;4.33;;
8881;SDS011;4477;48.736;9.176;2022-12-05T14:41:26;4.57;;;3.70;;
8881;SDS011;4477;48.736;9.176;2022-12-05T14:43:58;5.47;;;3.83;;
8881;SDS011;4477;48.736;9.176;2022-12-05T14:46:27;3.23;;;2.73;;
8881;SDS011;4477;48.736;9.176;2022-12-05T14:48:57;4.70;;;2.73;;
8881;SDS011;4477;48.736;9.176;2022-12-05T14:51:53;4.73;;;2.90;;
8881;SDS011;4477;48.736;9.176;2022-12-05T14:54:22;3.70;;;2.90;;
8881;SDS011;4477;48.736;9.176;2022-12-05T14:56:52;4.60;;;3.20;;
8881;SDS011;4477;48.736;9.176;2022-12-05T14:59:30;5.73;;;3.03;;
8881;SDS011;4477;48.736;9.176;2022-12-05T15:02:03;3.60;;;2.63;;
8881;SDS011;4477;48.736;9.176;2022-12-05T15:04:31;2.73;;;2.37;;
8881;SDS011;4477;48.736;9.176;2022-12-05T15:07:07;6.33;;;5.73;;
8881;SDS011;4477;48.736;9.176;2022-12-05T15:09:43;3.90;;;2.60;;
8881;SDS011;4477;48.736;9.176;2022-12-05T15:12:14;3.13;;;2.70;;
8881;SDS011;4477;48.736;9.176;2022-12-05T15:14:43;5.67;;;2.97;;
8881;SDS011;4477;48.736;9.176;2022-12-05T15:17:13;2.70;;;2.50;;
8881;SDS011;4477;48.736;9.176;2022-12-05T15:19:42;2.87;;;2.23;;
8881;SDS011;4477;48.736;9.176;2022-12-05T15:22:12;4.10;;;2.60;;
8881;SDS011;4477;48.736;9.176;2022-12-05T15:24:40;3.13;;;2.47;;
8881;SDS011;4477;48.736;9.176;2022-12-05T15:27:08;3.33;;;2.40;;
8881;SDS011;4477;48.736;9.176;2022-12-05T15:29:37;4.13;;;2.67;;
8881;SDS011;4477;48.736;9.176;2022-12-05T15:32:12;3.00;;;2.70;;
8881;SDS011;4477;48.736;9.176;2022-12-05T15:34:41;3.87;;;2.70;;
8881;SDS011;4477;48.736;9.176;2022-12-05T15:37:11;3.43;;;3.13;;
8881;SDS011;4477;48.736;9.176;2022-12-05T15:39:51;7.73;;;5.03;;
8881;SDS011;4477;48.736;9.176;2022-12-05T15:42:18;9.50;;;7.83;;
8881;SDS011;4477;48.736;9.176;2022-12-05T15:44:46;11.27;;;9.97;;